Latest Coastal Weather Observations for Cape Ferguson

IDQ60701

Issued at 4:31 am EST Tuesday 27 January 2015 (issued every 10 minutes, with the page automatically refreshed every 10 minutes)

About coastal observations | Map of coastal stations | Coastal observations for QLD | Marine services | Other Formats
Station Details ID: 032182 Name: CAPE FERGUSON NTC AWS Lat: -19.28 Lon: 147.06 Height: 0.0 m
Data from the previous 72 hours. | See also: Recent months for locations in Queensland
Date/Time
EST
Temp

°C
Wind Pressure Rain
since 9am
mm
Weather Cloud Vis
km
Sea
Height
m
Swell
Dir
 
Speed
knots
Gust
knots
hPa Trend Height
m
Period
s
Dir
27/04:30am 28.5 WNW 2 4 1001.5 - - - - - - - - -
27/04:00am 28.3 NW 2 3 1001.7 - - - - - - - - -
27/03:30am 28.6 WSW 3 5 1001.8 - - - - - - - - -
27/03:00am 28.8 SW 1 3 1001.9 - - - - - - - - -
27/02:30am 28.8 SSW 5 7 1001.8 - - - - - - - - -
27/02:00am 29.7 SSE 4 6 1001.7 - - - - - - - - -
27/01:30am 29.7 NE 3 9 1002.3 - - - - - - - - -
27/01:00am 29.4 W 1 3 1002.7 - - - - - - - - -
27/12:30am 29.6 WSW 4 9 1003.2 - - - - - - - - -
27/12:00am 29.5 NE 1 2 1003.8 - - - - - - - - -
 
Date/Time
EST
Temp

°C
Wind Pressure Rain
since 9am
mm
Weather Cloud Vis
km
Sea
Height
m
Swell
Dir
 
Speed
knots
Gust
knots
hPa Trend Height
m
Period
s
Dir
26/11:30pm 29.1 WNW 2 3 1003.9 - - - - - - - - -
26/11:00pm 29.9 ENE 3 4 1004.1 - - - - - - - - -
26/10:30pm 29.5 CALM 0 1 1003.9 - - - - - - - - -
26/10:00pm 29.4 NE 2 4 1003.7 - - - - - - - - -
26/09:30pm 29.3 WNW 4 5 1003.4 - - - - - - - - -
26/09:00pm 29.5 ENE 2 3 1003.5 - - - - - - - - -
26/08:30pm 29.5 N 3 5 1003.4 - - - - - - - - -
26/08:00pm 29.7 NNE 6 10 1003.0 - - - - - - - - -
26/07:30pm 29.6 NNE 6 8 1002.5 - - - - - - - - -
26/07:00pm 29.7 NNE 6 10 1002.1 - - - - - - - - -
26/06:30pm 29.8 NNE 5 12 1002.0 - - - - - - - - -
26/06:00pm 30.0 NE 6 12 1001.8 - - - - - - - - -
26/05:30pm 30.6 NNE 6 12 1001.5 - - - - - - - - -
26/05:00pm 30.3 NNE 5 10 1001.4 - - - - - - - - -
26/04:30pm 30.4 NE 6 10 1001.5 - - - - - - - - -
26/04:00pm 30.6 NE 6 10 1001.8 - - - - - - - - -
26/03:30pm 30.6 NE 7 12 1002.2 - - - - - - - - -
26/03:00pm 30.4 NNE 7 11 1002.9 - - - - - - - - -
26/02:30pm 30.6 NE 5 9 1003.2 - - - - - - - - -
26/02:00pm 30.7 NE 5 11 1003.4 - - - - - - - - -
26/01:30pm 30.5 NNE 7 10 1003.7 - - - - - - - - -
26/01:00pm 30.6 NE 6 9 1004.1 - - - - - - - - -
26/12:30pm 30.4 ENE 3 7 1004.3 - - - - - - - - -
26/12:00pm 30.8 CALM 0 1 1004.6 - - - - - - - - -
26/11:30am 30.1 W 3 7 1005.1 - - - - - - - - -
26/11:00am 29.7 W 6 10 1005.4 - - - - - - - - -
26/10:30am 29.3 WNW 7 13 1005.5 - - - - - - - - -
26/10:00am 28.9 WNW 10 14 1005.5 - - - - - - - - -
26/09:30am 28.4 WSW 7 9 1005.4 - - - - - - - - -
26/09:00am 27.9 W 7 10 1005.3 - - - - - - - - -
26/08:30am 27.1 W 10 13 1005.3 - - - - - - - - -
26/08:00am 27.5 W 8 12 1005.3 - - - - - - - - -
26/07:30am 27.2 SSW 3 11 1005.3 - - - - - - - - -
26/07:00am 26.6 WNW 4 6 1005.4 - - - - - - - - -
26/06:30am 27.0 NNW 2 4 1005.0 - - - - - - - - -
26/06:00am 27.2 NW 2 5 1004.7 - - - - - - - - -
26/05:30am 26.8 NW 2 3 1004.9 - - - - - - - - -
26/05:00am 27.0 SSW 2 4 1005.3 - - - - - - - - -
26/04:30am 26.9 SW 6 8 1005.4 - - - - - - - - -
26/04:00am 27.7 W 11 13 1005.3 - - - - - - - - -
26/03:30am 27.3 WSW 12 15 1005.2 - - - - - - - - -
26/03:00am 26.9 WSW 14 17 1005.2 - - - - - - - - -
26/02:30am 26.9 WSW 11 14 1005.3 - - - - - - - - -
26/02:00am 26.7 W 14 21 1005.7 - - - - - - - - -
26/01:30am 26.9 WSW 12 17 1006.1 - - - - - - - - -
26/01:00am 26.8 SW 7 12 1006.8 - - - - - - - - -
26/12:30am 27.2 WSW 7 8 1007.2 - - - - - - - - -
26/12:00am 27.2 W 1 2 1007.3 - - - - - - - - -
 
Date/Time
EST
Temp

°C
Wind Pressure Rain
since 9am
mm
Weather Cloud Vis
km
Sea
Height
m
Swell
Dir
 
Speed
knots
Gust
knots
hPa Trend Height
m
Period
s
Dir
25/11:30pm 27.1 WNW 3 3 1007.8 - - - - - - - - -
25/11:00pm 27.4 NW 2 4 1007.8 - - - - - - - - -
25/10:30pm 27.6 NNE 2 5 1007.6 - - - - - - - - -
25/10:00pm 27.7 E 5 7 1007.8 - - - - - - - - -
25/09:30pm 26.7 ESE 10 15 1008.1 - - - - - - - - -
25/09:00pm 27.7 ESE 8 9 1007.6 - - - - - - - - -
25/08:30pm 28.8 E 5 6 1006.6 - - - - - - - - -
25/08:00pm 28.8 NNE 4 7 1005.6 - - - - - - - - -
25/07:30pm 29.1 ENE 2 5 1004.9 - - - - - - - - -
25/07:00pm 28.7 WSW 3 4 1005.1 - - - - - - - - -
25/06:30pm 29.2 W 6 8 1004.9 - - - - - - - - -
25/06:00pm 28.5 WSW 15 19 1005.2 - - - - - - - - -
25/05:30pm 28.8 W 11 16 1004.5 - - - - - - - - -
25/05:00pm 30.1 W 8 11 1004.2 - - - - - - - - -
25/04:30pm 30.6 W 8 10 1003.8 - - - - - - - - -
25/04:00pm 30.7 W 6 9 1003.9 - - - - - - - - -
25/03:30pm 30.8 W 3 8 1004.2 - - - - - - - - -
25/03:00pm 30.5 NNW 6 14 1004.3 - - - - - - - - -
25/02:30pm 30.1 NNW 9 17 1004.7 - - - - - - - - -
25/02:00pm 30.3 NW 6 14 1004.8 - - - - - - - - -
25/01:30pm 31.7 NNW 6 13 1005.3 - - - - - - - - -
25/01:00pm 31.1 NW 9 12 1005.8 - - - - - - - - -
25/12:30pm 30.9 NW 10 16 1006.1 - - - - - - - - -
25/12:00pm 30.9 NW 8 13 1006.3 - - - - - - - - -
25/11:30am 30.9 W 3 7 1006.8 - - - - - - - - -
25/11:00am 30.4 SSW 2 4 1007.2 - - - - - - - - -
25/10:30am 30.4 WSW 5 11 1007.7 - - - - - - - - -
25/10:00am 30.9 WSW 7 14 1007.8 - - - - - - - - -
25/09:30am 30.3 N 3 8 1007.8 - - - - - - - - -
25/09:00am 29.2 ESE 3 4 1007.8 - - - - - - - - -
25/08:30am 28.2 SW 6 9 1007.7 - - - - - - - - -
25/08:00am 27.6 SSW 7 10 1007.7 - - - - - - - - -
25/07:30am 27.3 SSW 9 11 1007.5 - - - - - - - - -
25/07:00am 26.9 SSW 8 10 1007.5 - - - - - - - - -
25/06:30am 27.0 SW 8 11 1007.0 - - - - - - - - -
25/06:00am 27.1 SW 8 9 1006.9 - - - - - - - - -
25/05:30am 27.2 SSW 4 6 1006.7 - - - - - - - - -
25/05:00am 28.0 SSW 4 12 1006.5 - - - - - - - - -
25/04:30am 27.9 W 7 11 1006.3 - - - - - - - - -
25/04:00am 28.1 WNW 11 15 1006.4 - - - - - - - - -
25/03:30am 28.1 WNW 9 13 1006.4 - - - - - - - - -
25/03:00am 28.1 NW 10 16 1006.5 - - - - - - - - -
25/02:30am 27.9 NW 9 13 1006.7 - - - - - - - - -
25/02:00am 27.4 NE 2 5 1006.5 - - - - - - - - -
25/01:30am 27.2 SSW 7 9 1006.2 - - - - - - - - -
25/01:00am 27.5 WSW 5 12 1006.4 - - - - - - - - -
25/12:30am 27.2 SSW 8 11 1006.7 - - - - - - - - -
25/12:00am 27.5 SSW 5 8 1007.5 - - - - - - - - -
 
Date/Time
EST
Temp

°C
Wind Pressure Rain
since 9am
mm
Weather Cloud Vis
km
Sea
Height
m
Swell
Dir
 
Speed
knots
Gust
knots
hPa Trend Height
m
Period
s
Dir
24/11:30pm 27.8 W 10 14 1007.8 - - - - - - - - -
24/11:00pm 28.1 W 11 16 1008.2 - - - - - - - - -
24/10:30pm 28.5 WNW 7 11 1008.0 - - - - - - - - -
24/10:00pm 29.0 S 1 3 1008.0 - - - - - - - - -
24/09:30pm 29.3 SW 3 7 1007.3 - - - - - - - - -
24/09:00pm 28.6 NNW 5 10 1006.7 - - - - - - - - -
24/08:30pm 28.4 NW 9 16 1006.7 - - - - - - - - -
24/08:00pm 29.3 S 3 8 1006.3 - - - - - - - - -
24/07:30pm 28.3 S 4 10 1006.2 - - - - - - - - -
24/07:00pm 28.5 NW 8 18 1006.1 - - - - - - - - -
24/06:30pm 28.7 NW 12 20 1005.3 - - - - - - - - -
24/06:00pm 29.6 NW 2 10 1005.1 - - - - - - - - -
24/05:30pm 29.6 NW 4 10 1005.0 - - - - - - - - -
24/05:00pm 29.6 NNW 6 13 1004.4 - - - - - - - - -
24/04:30pm 29.6 NNW 5 10 1003.9 - - - - - - - - -
24/04:00pm 29.8 NNW 3 10 1003.9 - - - - - - - - -
24/03:30pm 29.9 NNW 5 12 1003.8 - - - - - - - - -
24/03:00pm 30.2 NW 7 19 1004.2 - - - - - - - - -
24/02:30pm 30.5 NW 5 11 1004.4 - - - - - - - - -
24/02:00pm 30.8 N 7 16 1003.9 - - - - - - - - -
24/01:30pm 31.1 N 5 15 1004.4 - - - - - - - - -
24/01:00pm 31.4 NNE 6 12 1004.7 - - - - - - - - -
24/12:30pm 31.4 WNW 4 11 1005.0 - - - - - - - - -
24/12:00pm 31.1 NW 5 11 1005.2 - - - - - - - - -
24/11:30am 31.3 NNW 3 10 1005.6 - - - - - - - - -
24/11:00am 31.1 WNW 4 6 1005.8 - - - - - - - - -
24/10:30am 30.8 NW 4 11 1006.0 - - - - - - - - -
24/10:00am 29.5 NE 6 11 1006.0 - - - - - - - - -
24/09:30am 29.2 NNE 6 9 1006.3 - - - - - - - - -
24/09:00am 29.4 WSW 3 8 1006.3 - - - - - - - - -
24/08:30am 29.4 ENE 3 10 1006.2 - - - - - - - - -
24/08:00am 29.3 NE 3 6 1006.0 - - - - - - - - -
24/07:30am 29.2 NW 3 5 1005.9 - - - - - - - - -
24/07:00am 29.2 NE 2 4 1005.7 - - - - - - - - -
24/06:30am 29.0 NNE 1 2 1005.3 - - - - - - - - -
24/06:00am 29.2 S 2 5 1004.8 - - - - - - - - -
24/05:30am 29.1 ENE 2 3 1004.6 - - - - - - - - -
24/05:00am 29.0 NW 4 5 1004.4 - - - - - - - - -

Other Formats:

Comma delimited format used in spreadsheet applications
http://www.bom.gov.au/fwo/IDQ60701/IDQ60701.94297.axf

JavaScript Object Notation format (JSON) in row-major order
http://www.bom.gov.au/fwo/IDQ60701/IDQ60701.94297.json